createdAt,value
2019-03-23T00:00:01.861Z,30.47
2019-03-23T00:02:36.389Z,29.77
2019-03-23T00:05:11.529Z,25.70
2019-03-23T00:07:45.554Z,30.30
2019-03-23T00:10:21.197Z,30.73
2019-03-23T00:12:58.168Z,31.52
2019-03-23T00:15:31.740Z,32.07
2019-03-23T00:18:05.970Z,33.07
2019-03-23T00:20:40.100Z,35.80
2019-03-23T00:23:14.136Z,37.67
2019-03-23T00:25:49.539Z,35.20
2019-03-23T00:28:23.341Z,34.87
2019-03-23T00:30:57.459Z,37.50
2019-03-23T00:33:32.200Z,39.13
2019-03-23T00:36:06.255Z,39.57
2019-03-23T00:38:41.971Z,41.95
2019-03-23T00:41:16.119Z,41.67
2019-03-23T00:43:51.034Z,45.80
2019-03-23T00:46:25.148Z,49.97
2019-03-23T00:48:59.494Z,53.23
2019-03-23T00:51:33.293Z,49.97
2019-03-23T00:54:07.048Z,44.80
2019-03-23T00:56:41.161Z,42.43
2019-03-23T00:59:17.607Z,43.47
2019-03-23T01:01:52.093Z,42.67
2019-03-23T01:04:26.155Z,41.20
2019-03-23T01:07:00.255Z,42.40
2019-03-23T01:09:33.994Z,43.00
2019-03-23T01:12:08.376Z,44.27
2019-03-23T01:14:42.325Z,44.23
2019-03-23T01:17:16.340Z,45.43
2019-03-23T01:19:53.160Z,45.90
2019-03-23T01:22:27.604Z,43.52
2019-03-23T01:25:02.802Z,43.08
2019-03-23T01:27:37.065Z,45.43
2019-03-23T01:30:17.506Z,43.70
2019-03-23T01:32:51.485Z,41.90
2019-03-23T01:35:30.867Z,42.60
2019-03-23T01:38:09.617Z,43.03
2019-03-23T01:40:43.654Z,44.20
2019-03-23T01:43:20.058Z,43.00
2019-03-23T01:45:55.665Z,43.97
2019-03-23T01:48:31.089Z,45.07
2019-03-23T01:51:05.224Z,42.90
2019-03-23T01:53:39.332Z,45.40
2019-03-23T01:56:14.863Z,43.87
2019-03-23T01:58:49.576Z,43.50
2019-03-23T02:01:23.590Z,43.20
2019-03-23T02:03:57.400Z,40.27
2019-03-23T02:06:31.532Z,36.53
2019-03-23T02:09:05.891Z,33.33
2019-03-23T02:11:40.499Z,28.43
2019-03-23T02:14:16.986Z,26.87
2019-03-23T02:16:54.031Z,33.00
2019-03-23T02:19:31.063Z,28.40
2019-03-23T02:22:08.733Z,26.90
2019-03-23T02:24:43.801Z,27.40
2019-03-23T02:27:19.992Z,22.93
2019-03-23T02:30:05.853Z,23.23
2019-03-23T02:32:42.005Z,22.67
2019-03-23T02:35:17.178Z,24.32
2019-03-23T02:37:52.787Z,25.37
2019-03-23T02:40:27.024Z,25.13
2019-03-23T02:43:03.179Z,25.27
2019-03-23T02:45:37.641Z,25.43
2019-03-23T02:48:12.386Z,22.90
2019-03-23T02:50:47.716Z,21.03
2019-03-23T02:53:22.558Z,20.48
2019-03-23T02:56:00.122Z,24.13
2019-03-23T02:58:34.971Z,22.37
2019-03-23T03:01:10.322Z,23.52
2019-03-23T03:03:49.187Z,21.85
2019-03-23T03:06:24.509Z,19.97
2019-03-23T03:09:01.813Z,20.10
2019-03-23T03:11:36.124Z,18.87
2019-03-23T03:14:10.137Z,18.83
2019-03-23T03:16:46.311Z,18.50
2019-03-23T03:19:21.032Z,18.27
2019-03-23T03:21:58.241Z,12.33
2019-03-23T03:24:33.418Z,13.20
2019-03-23T03:27:08.254Z,13.90
2019-03-23T03:29:45.082Z,11.87
2019-03-23T03:32:19.235Z,13.00
2019-03-23T03:34:55.662Z,13.40
2019-03-23T03:37:29.651Z,14.35
2019-03-23T03:40:04.895Z,14.03
2019-03-23T03:42:39.723Z,11.83
2019-03-23T03:45:16.566Z,11.67
2019-03-23T03:47:53.606Z,8.10
2019-03-23T03:50:30.808Z,5.95
2019-03-23T03:53:06.615Z,9.17
2019-03-23T03:55:45.866Z,9.50
2019-03-23T03:58:23.124Z,9.10
2019-03-23T04:00:59.247Z,8.60
2019-03-23T04:03:39.376Z,10.47
2019-03-23T04:06:14.227Z,12.10
2019-03-23T04:08:48.391Z,12.63
2019-03-23T04:11:22.358Z,11.30
2019-03-23T04:13:56.565Z,13.47
2019-03-23T04:16:31.012Z,12.65
2019-03-23T04:19:05.712Z,11.67
2019-03-23T04:21:41.693Z,10.97
2019-03-23T04:24:16.223Z,10.85
2019-03-23T04:26:50.904Z,11.27
2019-03-23T04:29:24.571Z,14.63
2019-03-23T04:31:58.976Z,13.57
2019-03-23T04:34:34.381Z,14.30
2019-03-23T04:37:08.482Z,15.80
2019-03-23T04:39:42.151Z,15.50
2019-03-23T04:42:16.651Z,14.83
2019-03-23T04:44:51.843Z,13.77
2019-03-23T04:47:26.764Z,11.03
2019-03-23T04:50:01.637Z,15.48
2019-03-23T04:52:39.604Z,15.77
2019-03-23T04:55:18.152Z,14.20
2019-03-23T04:57:53.843Z,11.33
2019-03-23T05:00:29.085Z,11.10
2019-03-23T05:03:08.791Z,11.50
2019-03-23T05:05:44.972Z,12.47
2019-03-23T05:08:32.542Z,11.80
2019-03-23T05:10:56.215Z,12.67
2019-03-23T05:13:31.276Z,11.65
2019-03-23T05:16:05.785Z,11.93
2019-03-23T05:18:41.960Z,12.33
2019-03-23T05:21:16.635Z,11.45
2019-03-23T05:23:51.827Z,11.90
2019-03-23T05:26:28.231Z,12.37
2019-03-23T05:29:03.532Z,11.70
2019-03-23T05:31:39.303Z,14.10
2019-03-23T05:34:21.337Z,16.90
2019-03-23T05:36:55.596Z,17.10
2019-03-23T05:39:31.954Z,16.57
2019-03-23T05:42:12.168Z,14.33
2019-03-23T05:44:48.705Z,14.13
2019-03-23T05:47:22.949Z,15.15
2019-03-23T05:49:57.476Z,14.80
2019-03-23T05:52:34.006Z,14.63
2019-03-23T05:55:08.393Z,15.23
2019-03-23T05:57:42.440Z,14.27
2019-03-23T06:00:18.560Z,12.83
2019-03-23T06:02:54.769Z,13.10
2019-03-23T06:05:29.409Z,13.23
2019-03-23T06:08:04.130Z,12.20
2019-03-23T06:10:38.263Z,11.43
2019-03-23T06:13:13.283Z,10.78
2019-03-23T06:15:49.508Z,10.65
2019-03-23T06:18:23.727Z,10.40
2019-03-23T06:21:04.662Z,10.40
2019-03-23T06:23:41.234Z,9.40
2019-03-23T06:26:16.397Z,9.63
2019-03-23T06:28:52.142Z,9.73
2019-03-23T06:31:27.711Z,9.43
2019-03-23T06:34:08.032Z,10.03
2019-03-23T06:36:43.661Z,10.90
2019-03-23T06:39:19.102Z,10.78
2019-03-23T06:41:56.072Z,11.28
2019-03-23T06:44:30.870Z,11.43
2019-03-23T06:47:11.220Z,12.60
2019-03-23T06:49:48.399Z,11.67
2019-03-23T06:52:23.454Z,11.37
2019-03-23T06:55:02.400Z,12.67
2019-03-23T06:57:37.078Z,12.20
2019-03-23T07:00:18.695Z,12.37
2019-03-23T07:02:53.609Z,11.23
2019-03-23T07:05:30.619Z,12.27
2019-03-23T07:08:05.178Z,12.50
2019-03-23T07:10:42.325Z,13.17
2019-03-23T07:13:21.992Z,12.80
2019-03-23T07:15:57.162Z,12.43
2019-03-23T07:18:31.321Z,11.10
2019-03-23T07:21:05.856Z,11.83
2019-03-23T07:23:40.523Z,9.67
2019-03-23T07:26:15.379Z,10.53
2019-03-23T07:28:52.696Z,10.33
2019-03-23T07:31:26.963Z,10.90
2019-03-23T07:34:01.556Z,10.33
2019-03-23T07:36:36.484Z,8.27
2019-03-23T07:39:11.275Z,9.17
2019-03-23T07:41:45.696Z,9.30
2019-03-23T07:44:19.763Z,9.30
2019-03-23T07:46:57.100Z,9.00
2019-03-23T07:49:32.456Z,8.77
2019-03-23T07:52:06.892Z,8.20
2019-03-23T07:54:41.610Z,8.30
2019-03-23T07:57:17.601Z,6.80
2019-03-23T07:59:54.035Z,6.97
2019-03-23T08:02:29.251Z,6.93
2019-03-23T08:05:04.249Z,6.87
2019-03-23T08:07:39.656Z,6.80
2019-03-23T08:10:16.445Z,6.50
2019-03-23T08:12:51.351Z,6.07
2019-03-23T08:15:26.007Z,5.93
2019-03-23T08:18:01.166Z,7.00
2019-03-23T08:20:37.333Z,6.33
2019-03-23T08:23:13.040Z,6.07
2019-03-23T08:25:48.248Z,6.37
2019-03-23T08:28:23.209Z,5.93
2019-03-23T08:30:58.182Z,5.33
2019-03-23T08:33:35.591Z,5.70
2019-03-23T08:36:13.341Z,5.27
2019-03-23T08:38:51.643Z,5.50
2019-03-23T08:41:26.611Z,5.63
2019-03-23T08:44:02.008Z,5.17
2019-03-23T08:46:38.999Z,5.58
2019-03-23T08:49:16.639Z,5.27
2019-03-23T08:51:51.842Z,5.35
2019-03-23T08:54:37.888Z,5.95
2019-03-23T08:57:18.411Z,5.28
2019-03-23T08:59:54.777Z,5.50
2019-03-23T09:02:30.080Z,6.05
2019-03-23T09:05:05.148Z,5.75
2019-03-23T09:07:41.599Z,5.90
2019-03-23T09:10:17.655Z,5.33
2019-03-23T09:12:54.651Z,5.78
2019-03-23T09:15:31.885Z,6.70
2019-03-23T09:18:06.368Z,4.70
2019-03-23T09:20:45.131Z,4.90
2019-03-23T09:23:21.896Z,5.14
2019-03-23T09:25:59.415Z,5.43
2019-03-23T09:28:34.412Z,5.50
2019-03-23T09:31:09.089Z,6.00
2019-03-23T09:33:45.694Z,5.57
2019-03-23T09:36:23.009Z,5.55
2019-03-23T09:38:58.210Z,4.90
2019-03-23T09:41:33.199Z,5.62
2019-03-23T09:44:11.854Z,5.33
2019-03-23T09:46:47.148Z,5.70
2019-03-23T09:49:23.873Z,5.97
2019-03-23T09:51:58.945Z,6.03
2019-03-23T09:54:34.664Z,8.70
2019-03-23T09:57:10.642Z,7.10
2019-03-23T09:59:45.669Z,6.87
2019-03-23T10:02:26.009Z,6.53
2019-03-23T10:05:03.607Z,7.67
2019-03-23T10:07:39.924Z,7.30
2019-03-23T10:10:21.828Z,7.13
2019-03-23T10:12:52.118Z,7.25
2019-03-23T10:15:28.139Z,9.27
2019-03-23T10:18:04.187Z,9.23
2019-03-23T10:20:39.206Z,7.10
2019-03-23T10:23:23.523Z,7.85
2019-03-23T10:26:01.795Z,7.43
2019-03-23T10:28:37.446Z,7.97
2019-03-23T10:31:12.582Z,7.97
2019-03-23T10:33:52.029Z,8.47
2019-03-23T10:36:28.905Z,23.00
2019-03-23T10:39:05.295Z,11.70
2019-03-23T10:41:43.266Z,11.60
2019-03-23T10:44:19.831Z,12.50
2019-03-23T10:46:57.302Z,11.97
2019-03-23T10:49:35.557Z,11.37
2019-03-23T10:52:10.542Z,11.63
2019-03-23T10:54:45.912Z,10.90
2019-03-23T10:57:21.188Z,10.67
2019-03-23T10:59:56.238Z,11.50
2019-03-23T11:02:32.563Z,11.17
2019-03-23T11:05:08.579Z,11.03
2019-03-23T11:07:44.025Z,11.77
2019-03-23T11:10:19.547Z,10.97
2019-03-23T11:12:54.678Z,11.63
2019-03-23T11:15:31.966Z,10.93
2019-03-23T11:18:06.916Z,10.70
2019-03-23T11:20:44.222Z,11.03
2019-03-23T11:23:20.225Z,10.90
2019-03-23T11:25:55.190Z,9.40
2019-03-23T11:28:30.174Z,8.53
2019-03-23T11:31:10.274Z,8.95
2019-03-23T11:33:45.599Z,8.87
2019-03-23T11:36:26.749Z,8.60
2019-03-23T11:39:02.328Z,9.23
2019-03-23T11:41:37.647Z,8.83
2019-03-23T11:44:12.996Z,9.03
2019-03-23T11:46:51.215Z,9.70
2019-03-23T11:49:27.039Z,10.03
2019-03-23T11:52:04.050Z,9.67
2019-03-23T11:54:39.062Z,9.97
2019-03-23T11:57:18.107Z,9.43
2019-03-23T11:59:53.770Z,11.10
2019-03-23T12:02:29.139Z,16.83
2019-03-23T12:05:05.374Z,10.23
2019-03-23T12:07:40.179Z,9.17
2019-03-23T12:10:16.715Z,8.50
2019-03-23T12:12:53.602Z,9.63
2019-03-23T12:15:30.156Z,9.23
2019-03-23T12:18:07.019Z,8.30
2019-03-23T12:20:42.380Z,8.30
2019-03-23T12:23:17.642Z,7.90
2019-03-23T12:25:58.614Z,7.57
2019-03-23T12:28:35.826Z,7.70
2019-03-23T12:31:11.320Z,7.90
2019-03-23T12:33:46.777Z,7.08
2019-03-23T12:36:23.827Z,7.77
2019-03-23T12:38:59.462Z,7.80
2019-03-23T12:41:41.424Z,7.83
2019-03-23T12:44:20.243Z,8.68
2019-03-23T12:46:55.793Z,7.97
2019-03-23T12:49:31.959Z,7.27
2019-03-23T12:52:07.289Z,8.07
2019-03-23T12:54:50.928Z,13.87
2019-03-23T12:57:26.512Z,8.07
2019-03-23T13:00:02.236Z,7.70
2019-03-23T13:02:42.137Z,7.13
2019-03-23T13:05:21.542Z,7.63
2019-03-23T13:08:15.653Z,7.83
2019-03-23T13:11:04.462Z,11.03
2019-03-23T13:13:45.141Z,9.68
2019-03-23T13:16:20.836Z,7.87
2019-03-23T13:19:00.832Z,8.10
2019-03-23T13:24:29.044Z,7.25
2019-03-23T13:27:05.594Z,7.40
2019-03-23T13:29:44.807Z,8.83
2019-03-23T13:32:25.076Z,7.10
2019-03-23T13:35:08.404Z,7.60
2019-03-23T13:37:46.578Z,7.50
2019-03-23T13:40:21.891Z,6.63
2019-03-23T13:43:00.481Z,6.20
2019-03-23T13:45:42.818Z,6.80
2019-03-23T13:48:19.035Z,6.42
2019-03-23T13:50:54.277Z,5.80
2019-03-23T13:53:30.472Z,5.77
2019-03-23T13:56:05.719Z,5.40
2019-03-23T13:58:41.425Z,6.53
2019-03-23T14:01:19.666Z,6.53
2019-03-23T14:03:59.497Z,5.65
2019-03-23T14:06:37.328Z,6.47
2019-03-23T14:09:12.502Z,6.17
2019-03-23T14:11:54.690Z,6.67
2019-03-23T14:14:23.878Z,5.43
2019-03-23T14:16:59.000Z,5.57
2019-03-23T14:19:36.358Z,5.12
2019-03-23T14:22:12.774Z,5.30
2019-03-23T14:24:48.797Z,4.90
2019-03-23T14:27:23.505Z,5.97
2019-03-23T14:29:59.874Z,5.57
2019-03-23T14:32:34.604Z,6.33
2019-03-23T14:35:10.072Z,6.00
2019-03-23T14:37:45.163Z,5.80
2019-03-23T14:40:20.217Z,5.08
2019-03-23T14:42:56.662Z,4.00
2019-03-23T14:45:33.163Z,9.25
2019-03-23T14:51:10.621Z,5.87
2019-03-23T14:56:42.303Z,4.30
2019-03-23T15:02:16.529Z,5.80
2019-03-23T15:04:51.753Z,7.43
2019-03-23T15:07:27.961Z,5.67
2019-03-23T15:10:09.759Z,5.67
2019-03-23T15:15:35.482Z,5.87
2019-03-23T15:18:10.538Z,6.17
2019-03-23T15:21:37.936Z,5.00
2019-03-23T15:23:33.858Z,4.98
2019-03-23T15:31:57.457Z,5.60
2019-03-23T15:34:31.056Z,5.93
2019-03-23T15:39:57.382Z,5.20
2019-03-23T15:42:50.224Z,5.37
2019-03-23T15:48:15.807Z,4.80
2019-03-23T15:50:59.094Z,5.50
2019-03-23T15:56:46.154Z,4.47
2019-03-23T15:59:21.088Z,4.67
2019-03-23T16:04:44.327Z,5.23
2019-03-23T16:07:33.408Z,4.90
2019-03-23T16:13:05.744Z,4.33
2019-03-23T16:21:43.884Z,3.85
2019-03-23T16:24:21.155Z,3.77
2019-03-23T16:26:55.321Z,4.83
2019-03-23T16:29:28.985Z,4.73
2019-03-23T16:34:53.452Z,4.62
2019-03-23T16:37:30.374Z,5.40
2019-03-23T16:42:54.906Z,6.30
2019-03-23T16:51:08.887Z,4.20
2019-03-23T16:53:54.801Z,4.60
2019-03-23T16:56:41.970Z,4.23
2019-03-23T16:59:05.008Z,4.10
2019-03-23T17:04:35.102Z,4.80
2019-03-23T17:07:09.103Z,4.40
2019-03-23T17:12:36.907Z,4.45
2019-03-23T17:15:11.128Z,5.83
2019-03-23T17:20:37.822Z,3.77
2019-03-23T17:23:25.352Z,3.40
2019-03-23T17:27:59.080Z,4.10
2019-03-23T17:28:34.423Z,4.40
2019-03-23T17:33:59.275Z,3.67
2019-03-23T17:36:33.444Z,3.23
2019-03-23T17:42:05.799Z,4.13
2019-03-23T17:47:30.557Z,3.97
2019-03-23T17:50:04.486Z,3.97
2019-03-23T17:55:43.317Z,3.52
2019-03-23T18:01:19.077Z,3.60
2019-03-23T18:03:46.588Z,3.77
2019-03-23T18:09:09.461Z,5.97
2019-03-23T18:11:50.218Z,14.95
2019-03-23T18:17:21.263Z,6.13
2019-03-23T18:20:05.149Z,6.60
2019-03-23T18:25:45.262Z,4.55
2019-03-23T18:28:18.970Z,6.10
2019-03-23T18:30:52.809Z,5.63
2019-03-23T18:33:29.060Z,5.87
2019-03-23T18:38:52.054Z,6.00
2019-03-23T18:44:23.321Z,5.50
2019-03-23T18:46:58.510Z,5.57
2019-03-23T18:52:29.334Z,6.05
2019-03-23T18:55:04.340Z,5.90
2019-03-23T19:00:42.671Z,6.50
2019-03-23T19:03:17.994Z,6.30
2019-03-23T19:08:55.163Z,6.73
2019-03-23T19:14:19.441Z,6.53
2019-03-23T19:16:53.746Z,6.13
2019-03-23T19:22:19.264Z,6.77
2019-03-23T19:24:55.685Z,6.47
2019-03-23T19:30:21.526Z,6.13
2019-03-23T19:32:55.478Z,6.33
2019-03-23T19:38:21.277Z,6.70
2019-03-23T19:40:55.022Z,7.00
2019-03-23T19:46:23.321Z,6.40
2019-03-23T19:49:19.468Z,6.20
2019-03-23T19:51:53.111Z,6.47
2019-03-23T19:54:27.052Z,6.73
2019-03-23T19:59:51.796Z,6.43
2019-03-23T20:02:31.007Z,6.93
2019-03-23T20:07:57.105Z,5.97
2019-03-23T20:10:30.781Z,6.20
2019-03-23T20:13:04.330Z,6.53
2019-03-23T20:15:37.881Z,7.03
2019-03-23T20:21:05.529Z,6.73
2019-03-23T20:23:40.010Z,6.50
2019-03-23T20:29:10.356Z,6.67
2019-03-23T20:31:53.415Z,6.03
2019-03-23T20:34:27.415Z,6.60
2019-03-23T20:37:01.045Z,7.20
2019-03-23T20:42:28.142Z,6.90
2019-03-23T20:45:01.873Z,7.10
2019-03-23T20:50:34.287Z,6.93
2019-03-23T20:53:07.879Z,6.57
2019-03-23T20:58:32.417Z,7.20
2019-03-23T21:01:06.319Z,7.00
2019-03-23T21:06:37.531Z,7.43
2019-03-23T21:09:21.109Z,7.33
2019-03-23T21:14:53.837Z,7.65
2019-03-23T21:17:28.863Z,8.30
2019-03-23T21:22:59.813Z,8.65
2019-03-23T21:25:35.382Z,8.60
2019-03-23T21:31:03.346Z,8.50
2019-03-23T21:33:38.992Z,8.90
2019-03-23T21:39:12.008Z,8.38
2019-03-23T21:51:09.268Z,10.20
2019-03-23T21:59:52.408Z,10.43
2019-03-23T22:02:25.886Z,10.70
2019-03-23T22:08:08.899Z,11.83
2019-03-23T22:10:42.712Z,11.07
2019-03-23T22:16:16.266Z,11.17
2019-03-23T22:18:51.464Z,12.57
2019-03-23T22:24:25.116Z,12.57
2019-03-23T22:26:58.751Z,12.40
2019-03-23T22:32:27.183Z,13.32
2019-03-23T22:35:00.808Z,13.13
2019-03-23T22:40:35.087Z,13.60
2019-03-23T22:43:10.419Z,13.30
2019-03-23T22:48:39.119Z,13.20
2019-03-23T22:51:12.867Z,12.73
2019-03-23T22:59:43.837Z,14.03
2019-03-23T23:02:38.575Z,13.77
2019-03-23T23:08:10.179Z,14.78
2019-03-23T23:10:45.236Z,13.88
2019-03-23T23:16:15.866Z,14.67
2019-03-23T23:18:49.793Z,14.67
2019-03-23T23:24:15.095Z,14.47
2019-03-23T23:26:49.931Z,14.10
2019-03-23T23:32:26.920Z,13.60
2019-03-23T23:35:00.777Z,14.33
2019-03-23T23:40:36.762Z,14.53
2019-03-23T23:43:10.269Z,13.70
2019-03-23T23:46:49.736Z,14.07
2019-03-23T23:48:28.844Z,13.33
2019-03-23T23:51:02.532Z,14.60
2019-03-23T23:56:27.006Z,13.33
2019-03-23T23:59:00.980Z,14.03
